Time,TemperatureF,DewpointF,PressureIn,WindDirection,WindDirectionDegrees,WindSpeedMPH,WindSpeedGustMPH,Humidity,HourlyPrecipIn,Conditions,Clouds,dailyrainin,SoftwareType,DateUTC
2013-03-31 00:02:00,46.0,27.9,30.20,South,180,1.0,3.0,49,0.00,,,0.00,meteohub,2013-03-31 04:02:00,
2013-03-31 00:12:00,46.0,28.4,30.20,SE,135,1.0,2.0,50,0.00,,,0.00,meteohub,2013-03-31 04:12:00,
2013-03-31 00:22:00,46.0,28.4,30.19,South,180,2.0,2.0,50,0.00,,,0.00,meteohub,2013-03-31 04:22:00,
2013-03-31 00:32:00,46.0,28.4,30.19,South,180,2.0,3.0,50,0.00,,,0.00,meteohub,2013-03-31 04:32:00,
2013-03-31 00:42:00,46.0,28.4,30.19,South,180,1.0,3.0,50,0.00,,,0.00,meteohub,2013-03-31 04:42:00,
2013-03-31 00:52:00,46.0,28.9,30.19,South,180,2.0,5.0,51,0.00,,,0.00,meteohub,2013-03-31 04:52:00,
2013-03-31 01:02:00,46.0,28.9,30.18,SE,135,1.0,5.0,51,0.00,,,0.00,meteohub,2013-03-31 05:02:00,
2013-03-31 01:12:00,46.0,28.9,30.18,SE,135,2.0,4.0,51,0.00,,,0.00,meteohub,2013-03-31 05:12:00,
2013-03-31 01:22:00,46.0,28.9,30.18,South,180,1.0,6.0,51,0.00,,,0.00,meteohub,2013-03-31 05:22:00,
2013-03-31 01:32:00,46.0,29.5,30.18,South,180,1.0,6.0,52,0.00,,,0.00,meteohub,2013-03-31 05:32:00,
2013-03-31 01:42:00,46.0,29.5,30.18,SE,135,2.0,4.0,52,0.00,,,0.00,meteohub,2013-03-31 05:42:00,
2013-03-31 01:52:00,46.0,29.5,30.18,SE,135,2.0,4.0,52,0.00,,,0.00,meteohub,2013-03-31 05:52:00,
2013-03-31 02:02:00,46.0,29.5,30.18,South,180,2.0,3.0,52,0.00,,,0.00,meteohub,2013-03-31 06:02:00,
2013-03-31 02:12:00,46.0,29.8,30.18,SE,135,2.0,4.0,53,0.00,,,0.00,meteohub,2013-03-31 06:12:00,
2013-03-31 02:22:00,46.0,29.5,30.17,SE,135,1.0,4.0,52,0.00,,,0.00,meteohub,2013-03-31 06:22:00,
2013-03-31 02:32:00,46.0,29.8,30.17,SE,135,2.0,3.0,53,0.00,,,0.00,meteohub,2013-03-31 06:32:00,
2013-03-31 02:42:00,46.0,29.8,30.16,SE,135,1.0,4.0,53,0.00,,,0.00,meteohub,2013-03-31 06:42:00,
2013-03-31 02:52:00,46.0,29.5,30.16,SSE,157,2.0,4.0,52,0.00,,,0.00,meteohub,2013-03-31 06:52:00,
2013-03-31 03:02:00,46.0,29.5,30.15,SSE,157,2.0,4.0,52,0.00,,,0.00,meteohub,2013-03-31 07:02:00,
2013-03-31 03:12:00,46.0,28.9,30.15,SE,135,1.0,5.0,51,0.00,,,0.00,meteohub,2013-03-31 07:12:00,
2013-03-31 03:22:00,46.0,28.9,30.15,SE,135,2.0,4.0,51,0.00,,,0.00,meteohub,2013-03-31 07:22:00,
2013-03-31 03:32:00,46.0,29.5,30.15,SE,135,2.0,4.0,52,0.00,,,0.00,meteohub,2013-03-31 07:32:00,
2013-03-31 03:42:00,46.0,29.5,30.14,SE,135,1.0,4.0,52,0.00,,,0.00,meteohub,2013-03-31 07:42:00,
2013-03-31 03:52:00,46.0,30.4,30.13,South,180,0.0,3.0,54,0.00,,,0.00,meteohub,2013-03-31 07:52:00,
2013-03-31 04:02:00,45.0,29.8,30.13,SE,135,2.0,3.0,55,0.00,,,0.00,meteohub,2013-03-31 08:02:00,
2013-03-31 04:12:00,45.0,30.6,30.13,SSE,157,1.0,2.0,57,0.00,,,0.00,meteohub,2013-03-31 08:12:00,
2013-03-31 04:22:00,45.0,30.2,30.13,SE,135,1.0,3.0,56,0.00,,,0.00,meteohub,2013-03-31 08:22:00,
2013-03-31 04:32:00,45.0,30.6,30.12,SE,135,1.0,3.0,57,0.00,,,0.00,meteohub,2013-03-31 08:32:00,
2013-03-31 04:42:00,45.0,30.6,30.12,SE,135,1.0,3.0,57,0.00,,,0.00,meteohub,2013-03-31 08:42:00,
2013-03-31 04:52:00,45.0,30.6,30.12,SE,135,2.0,4.0,57,0.00,,,0.00,meteohub,2013-03-31 08:52:00,
2013-03-31 05:02:00,45.0,31.1,30.11,SE,135,2.0,3.0,58,0.00,,,0.00,meteohub,2013-03-31 09:02:00,
2013-03-31 05:12:00,45.0,31.1,30.11,SE,135,1.0,3.0,58,0.00,,,0.00,meteohub,2013-03-31 09:12:00,
2013-03-31 05:22:00,45.0,31.1,30.10,ESE,112,2.0,4.0,58,0.00,,,0.00,meteohub,2013-03-31 09:22:00,
2013-03-31 05:32:00,44.1,30.2,30.10,SE,135,2.0,4.0,58,0.00,,,0.00,meteohub,2013-03-31 09:32:00,
2013-03-31 05:42:00,44.1,30.7,30.09,SE,135,2.0,3.0,59,0.00,,,0.00,meteohub,2013-03-31 09:42:00,
2013-03-31 05:52:00,44.1,31.1,30.09,SE,135,1.0,4.0,60,0.00,,,0.00,meteohub,2013-03-31 09:52:00,
2013-03-31 06:02:00,44.1,31.1,30.09,SE,135,2.0,4.0,60,0.00,,,0.00,meteohub,2013-03-31 10:02:00,
2013-03-31 06:12:00,44.1,31.5,30.09,SE,135,2.0,4.0,61,0.00,,,0.00,meteohub,2013-03-31 10:12:00,
2013-03-31 06:22:00,44.1,31.8,30.09,SE,135,2.0,4.0,62,0.00,,,0.00,meteohub,2013-03-31 10:22:00,
2013-03-31 06:32:00,44.1,31.8,30.08,SSE,157,2.0,3.0,62,0.00,,,0.00,meteohub,2013-03-31 10:32:00,
2013-03-31 06:42:00,44.1,32.4,30.08,SE,135,1.0,4.0,63,0.00,,,0.00,meteohub,2013-03-31 10:42:00,
2013-03-31 06:52:00,44.1,32.7,30.08,SE,135,2.0,4.0,64,0.00,,,0.00,meteohub,2013-03-31 10:52:00,
2013-03-31 07:02:00,44.1,32.7,30.08,SE,135,1.0,4.0,64,0.00,,,0.00,meteohub,2013-03-31 11:02:00,
2013-03-31 07:12:00,44.1,32.7,30.08,South,180,3.0,4.0,64,0.00,,,0.00,meteohub,2013-03-31 11:12:00,
2013-03-31 07:22:00,44.1,33.1,30.09,SE,135,1.0,4.0,65,0.00,,,0.00,meteohub,2013-03-31 11:22:00,
2013-03-31 07:32:00,44.1,33.1,30.09,SE,135,2.0,3.0,65,0.00,,,0.00,meteohub,2013-03-31 11:32:00,
2013-03-31 07:42:00,44.1,33.4,30.08,SE,135,2.0,4.0,66,0.00,,,0.00,meteohub,2013-03-31 11:42:00,
2013-03-31 07:52:00,45.0,34.7,30.09,SE,135,3.0,5.0,67,0.00,,,0.00,meteohub,2013-03-31 11:52:00,
2013-03-31 08:02:00,45.0,35.1,30.09,SE,135,2.0,5.0,68,0.00,,,0.00,meteohub,2013-03-31 12:02:00,
2013-03-31 08:12:00,45.0,35.1,30.08,SE,135,3.0,4.0,68,0.00,,,0.00,meteohub,2013-03-31 12:12:00,
2013-03-31 08:22:00,45.0,35.1,30.08,South,180,1.0,4.0,68,0.00,,,0.00,meteohub,2013-03-31 12:22:00,
2013-03-31 08:32:00,45.0,35.1,30.09,SE,135,3.0,4.0,68,0.00,,,0.00,meteohub,2013-03-31 12:32:00,
2013-03-31 08:42:00,46.0,36.1,30.08,SE,135,2.0,4.0,68,0.00,,,0.00,meteohub,2013-03-31 12:42:00,
2013-03-31 08:52:00,46.0,36.1,30.07,South,180,2.0,4.0,68,0.00,,,0.00,meteohub,2013-03-31 12:52:00,
2013-03-31 09:02:00,46.0,36.1,30.07,SSE,157,2.0,4.0,68,0.00,,,0.00,meteohub,2013-03-31 13:02:00,
2013-03-31 09:12:00,46.0,36.9,30.07,SE,135,1.0,4.0,70,0.00,,,0.00,meteohub,2013-03-31 13:12:00,
2013-03-31 09:22:00,46.9,37.6,30.07,SE,135,3.0,4.0,70,0.00,,,0.00,meteohub,2013-03-31 13:22:00,
2013-03-31 09:32:00,46.9,37.6,30.06,South,180,2.0,6.0,70,0.00,,,0.00,meteohub,2013-03-31 13:32:00,
2013-03-31 09:42:00,46.9,37.6,30.06,South,180,1.0,8.0,70,0.00,,,0.00,meteohub,2013-03-31 13:42:00,
2013-03-31 09:52:00,46.9,37.2,30.05,South,180,2.0,8.0,69,0.00,,,0.00,meteohub,2013-03-31 13:52:00,
2013-03-31 10:02:00,48.0,38.3,30.05,SE,135,4.0,5.0,69,0.00,,,0.00,meteohub,2013-03-31 14:02:00,
2013-03-31 10:12:00,48.9,38.8,30.05,South,180,1.0,6.0,68,0.00,,,0.00,meteohub,2013-03-31 14:12:00,
2013-03-31 10:22:00,48.9,38.5,30.05,South,180,1.0,6.0,67,0.00,,,0.00,meteohub,2013-03-31 14:22:00,
2013-03-31 10:32:00,48.9,38.8,30.04,South,180,3.0,6.0,68,0.00,,,0.00,meteohub,2013-03-31 14:32:00,
2013-03-31 10:42:00,50.0,39.6,30.05,South,180,2.0,6.0,67,0.00,,,0.00,meteohub,2013-03-31 14:42:00,
2013-03-31 10:52:00,50.0,39.6,30.05,South,180,2.0,6.0,67,0.00,,,0.00,meteohub,2013-03-31 14:52:00,
2013-03-31 11:02:00,51.1,39.7,30.05,South,180,2.0,6.0,65,0.00,,,0.00,meteohub,2013-03-31 15:02:00,
2013-03-31 11:12:00,51.1,39.7,30.04,South,180,1.0,6.0,65,0.00,,,0.00,meteohub,2013-03-31 15:12:00,
2013-03-31 11:22:00,52.0,40.6,30.03,SE,135,2.0,4.0,65,0.00,,,0.00,meteohub,2013-03-31 15:22:00,
2013-03-31 11:32:00,52.0,40.6,30.03,SE,135,1.0,2.0,65,0.00,,,0.00,meteohub,2013-03-31 15:32:00,
2013-03-31 11:42:00,52.0,41.0,30.02,SE,135,0.0,3.0,66,0.00,,,0.00,meteohub,2013-03-31 15:42:00,
2013-03-31 11:52:00,53.1,41.5,30.02,SE,135,1.0,7.0,65,0.00,,,0.00,meteohub,2013-03-31 15:52:00,
2013-03-31 12:02:00,54.0,42.4,30.01,South,180,2.0,4.0,65,0.00,,,0.00,meteohub,2013-03-31 16:02:00,
2013-03-31 12:12:00,54.0,42.4,30.01,SE,135,5.0,5.0,65,0.00,,,0.00,meteohub,2013-03-31 16:12:00,
2013-03-31 12:22:00,54.0,42.8,30.01,South,180,2.0,6.0,66,0.00,,,0.00,meteohub,2013-03-31 16:22:00,
2013-03-31 12:32:00,53.1,42.8,30.00,SSE,157,2.0,9.0,68,0.00,,,0.00,meteohub,2013-03-31 16:32:00,
2013-03-31 12:42:00,53.1,45.0,29.98,South,180,1.0,9.0,74,0.00,,,0.00,meteohub,2013-03-31 16:42:00,
2013-03-31 12:52:00,53.1,47.1,29.97,SE,135,2.0,7.0,80,0.00,,,0.01,meteohub,2013-03-31 16:52:00,
2013-03-31 13:02:00,52.0,47.3,29.96,SE,135,1.0,7.0,84,0.01,,,0.01,meteohub,2013-03-31 17:02:00,
2013-03-31 13:12:00,52.0,46.9,29.95,SSE,157,0.0,5.0,83,0.01,,,0.01,meteohub,2013-03-31 17:12:00,
2013-03-31 13:22:00,52.0,47.7,29.95,SE,135,2.0,4.0,85,0.01,,,0.01,meteohub,2013-03-31 17:22:00,
2013-03-31 13:32:00,52.0,46.6,29.94,SE,135,4.0,4.0,82,0.01,,,0.01,meteohub,2013-03-31 17:32:00,
2013-03-31 13:42:00,52.0,46.9,29.93,SE,135,2.0,6.0,83,0.01,,,0.01,meteohub,2013-03-31 17:42:00,
2013-03-31 13:52:00,52.0,47.7,29.93,SSE,157,2.0,6.0,85,0.01,,,0.01,meteohub,2013-03-31 17:52:00,
2013-03-31 14:02:00,52.0,48.6,29.92,SSE,157,2.0,7.0,88,0.00,,,0.01,meteohub,2013-03-31 18:02:00,
2013-03-31 14:12:00,51.1,48.6,29.92,South,180,1.0,6.0,91,0.00,,,0.01,meteohub,2013-03-31 18:12:00,
2013-03-31 14:22:00,51.1,49.6,29.91,SE,135,2.0,4.0,95,0.00,,,0.01,meteohub,2013-03-31 18:22:00,
2013-03-31 14:32:00,51.1,50.2,29.91,SE,135,8.0,8.0,97,0.01,,,0.02,meteohub,2013-03-31 18:32:00,
2013-03-31 14:42:00,50.0,49.1,29.90,SE,135,1.0,9.0,97,0.01,,,0.02,meteohub,2013-03-31 18:42:00,
2013-03-31 14:52:00,50.0,49.1,29.89,SE,135,3.0,7.0,97,0.01,,,0.02,meteohub,2013-03-31 18:52:00,
2013-03-31 15:02:00,50.0,49.1,29.89,SE,135,2.0,5.0,97,0.01,,,0.02,meteohub,2013-03-31 19:02:00,
2013-03-31 15:12:00,51.1,50.2,29.87,SE,135,2.0,5.0,97,0.01,,,0.02,meteohub,2013-03-31 19:12:00,
2013-03-31 15:22:00,51.1,50.2,29.86,South,180,1.0,6.0,97,0.01,,,0.02,meteohub,2013-03-31 19:22:00,
2013-03-31 15:32:00,51.1,50.2,29.87,SE,135,2.0,5.0,97,0.00,,,0.02,meteohub,2013-03-31 19:32:00,
2013-03-31 15:42:00,51.1,50.2,29.88,SSW,202,1.0,4.0,97,0.00,,,0.02,meteohub,2013-03-31 19:42:00,
2013-03-31 15:52:00,51.1,50.2,29.88,South,180,2.0,4.0,97,0.00,,,0.02,meteohub,2013-03-31 19:52:00,
2013-03-31 16:02:00,51.1,50.2,29.87,SSE,157,1.0,5.0,97,0.00,,,0.02,meteohub,2013-03-31 20:02:00,
2013-03-31 16:12:00,51.1,50.2,29.87,South,180,2.0,6.0,97,0.00,,,0.02,meteohub,2013-03-31 20:12:00,
2013-03-31 16:22:00,51.1,50.2,29.87,South,180,2.0,4.0,97,0.00,,,0.02,meteohub,2013-03-31 20:22:00,
2013-03-31 16:32:00,50.0,49.1,29.86,SSW,202,2.0,6.0,97,0.00,,,0.02,meteohub,2013-03-31 20:32:00,
2013-03-31 16:42:00,50.0,49.1,29.86,SW,225,2.0,6.0,97,0.00,,,0.02,meteohub,2013-03-31 20:42:00,
2013-03-31 16:52:00,50.0,49.1,29.85,SW,225,2.0,6.0,97,0.00,,,0.02,meteohub,2013-03-31 20:52:00,
2013-03-31 17:02:00,50.0,49.1,29.86,SSW,202,1.0,6.0,97,0.00,,,0.02,meteohub,2013-03-31 21:02:00,
2013-03-31 17:12:00,50.0,49.1,29.86,South,180,1.0,4.0,97,0.00,,,0.02,meteohub,2013-03-31 21:12:00,
2013-03-31 17:22:00,51.1,50.2,29.86,SSW,202,2.0,4.0,97,0.00,,,0.02,meteohub,2013-03-31 21:22:00,
2013-03-31 17:32:00,51.1,50.2,29.86,SW,225,2.0,4.0,97,0.00,,,0.02,meteohub,2013-03-31 21:32:00,
2013-03-31 17:42:00,51.1,50.2,29.86,South,180,4.0,5.0,97,0.00,,,0.02,meteohub,2013-03-31 21:42:00,
2013-03-31 17:52:00,51.1,50.2,29.85,SSW,202,1.0,4.0,97,0.00,,,0.02,meteohub,2013-03-31 21:52:00,
2013-03-31 18:02:00,51.1,50.2,29.85,SW,225,4.0,6.0,97,0.00,,,0.02,meteohub,2013-03-31 22:02:00,
2013-03-31 18:12:00,51.1,50.2,29.84,SW,225,2.0,6.0,97,0.00,,,0.02,meteohub,2013-03-31 22:12:00,
2013-03-31 18:22:00,51.1,50.0,29.85,SW,225,2.0,4.0,96,0.00,,,0.02,meteohub,2013-03-31 22:22:00,
2013-03-31 18:32:00,51.1,49.6,29.85,West,270,2.0,6.0,95,0.00,,,0.02,meteohub,2013-03-31 22:32:00,
2013-03-31 18:42:00,51.1,49.6,29.84,SW,225,3.0,6.0,95,0.00,,,0.02,meteohub,2013-03-31 22:42:00,
2013-03-31 18:52:00,51.1,49.6,29.85,South,180,2.0,9.0,95,0.00,,,0.02,meteohub,2013-03-31 22:52:00,
2013-03-31 19:02:00,50.0,48.6,29.86,WSW,247,2.0,9.0,95,0.00,,,0.02,meteohub,2013-03-31 23:02:00,
2013-03-31 19:12:00,50.0,48.6,29.85,West,270,4.0,9.0,95,0.00,,,0.02,meteohub,2013-03-31 23:12:00,
2013-03-31 19:22:00,50.0,48.9,29.85,WSW,247,2.0,7.0,96,0.00,,,0.02,meteohub,2013-03-31 23:22:00,
2013-03-31 19:32:00,50.0,48.9,29.85,North,0,2.0,7.0,96,0.00,,,0.02,meteohub,2013-03-31 23:32:00,
2013-03-31 19:42:00,50.0,49.1,29.86,SW,225,2.0,5.0,97,0.00,,,0.02,meteohub,2013-03-31 23:42:00,
2013-03-31 19:52:00,50.0,49.1,29.85,SW,225,2.0,6.0,97,0.00,,,0.02,meteohub,2013-03-31 23:52:00,
2013-03-31 20:02:00,50.0,49.1,29.85,South,180,2.0,6.0,97,0.00,,,0.02,meteohub,2013-04-01 00:02:00,
2013-03-31 20:12:00,50.0,49.1,29.86,WSW,247,2.0,4.0,97,0.00,,,0.02,meteohub,2013-04-01 00:12:00,
2013-03-31 20:22:00,50.0,49.1,29.85,NW,315,2.0,4.0,97,0.00,,,0.02,meteohub,2013-04-01 00:22:00,
2013-03-31 20:32:00,48.9,48.0,29.85,NW,315,1.0,4.0,97,0.00,,,0.02,meteohub,2013-04-01 00:32:00,
2013-03-31 20:42:00,48.9,48.0,29.86,NW,315,1.0,3.0,97,0.00,,,0.02,meteohub,2013-04-01 00:42:00,
2013-03-31 20:52:00,48.9,48.0,29.86,NW,315,2.0,2.0,97,0.00,,,0.02,meteohub,2013-04-01 00:52:00,
2013-03-31 21:02:00,48.9,48.0,29.87,West,270,1.0,3.0,97,0.00,,,0.02,meteohub,2013-04-01 01:02:00,
2013-03-31 21:12:00,48.9,48.0,29.87,West,270,0.0,2.0,97,0.00,,,0.02,meteohub,2013-04-01 01:12:00,
2013-03-31 21:22:00,48.9,48.0,29.87,NW,315,2.0,2.0,97,0.00,,,0.02,meteohub,2013-04-01 01:22:00,
2013-03-31 21:32:00,48.9,48.0,29.89,NW,315,1.0,4.0,97,0.00,,,0.02,meteohub,2013-04-01 01:32:00,
2013-03-31 21:42:00,48.9,48.0,29.89,WSW,247,2.0,3.0,97,0.00,,,0.02,meteohub,2013-04-01 01:42:00,
2013-03-31 21:52:00,48.9,48.0,29.88,SW,225,1.0,3.0,97,0.00,,,0.02,meteohub,2013-04-01 01:52:00,
2013-03-31 22:02:00,48.9,48.0,29.88,SW,225,2.0,2.0,97,0.00,,,0.02,meteohub,2013-04-01 02:02:00,
2013-03-31 22:12:00,48.9,48.0,29.88,SW,225,2.0,3.0,97,0.00,,,0.02,meteohub,2013-04-01 02:12:00,
2013-03-31 22:22:00,48.9,48.0,29.88,SW,225,1.0,2.0,97,0.00,,,0.02,meteohub,2013-04-01 02:22:00,
2013-03-31 22:32:00,48.9,48.0,29.88,SSW,202,1.0,2.0,97,0.00,,,0.02,meteohub,2013-04-01 02:32:00,
2013-03-31 22:42:00,48.9,48.0,29.88,SSW,202,2.0,2.0,97,0.00,,,0.02,meteohub,2013-04-01 02:42:00,
2013-03-31 22:52:00,48.0,47.1,29.87,SSW,202,1.0,2.0,97,0.00,,,0.02,meteohub,2013-04-01 02:52:00,
2013-03-31 23:02:00,48.0,47.1,29.87,SSW,202,2.0,2.0,97,0.00,,,0.02,meteohub,2013-04-01 03:02:00,
2013-03-31 23:12:00,48.0,47.1,29.87,SSW,202,1.0,2.0,97,0.00,,,0.02,meteohub,2013-04-01 03:12:00,
2013-03-31 23:22:00,46.9,46.2,29.87,SSW,202,2.0,2.0,97,0.00,,,0.02,meteohub,2013-04-01 03:22:00,
2013-03-31 23:32:00,46.9,46.2,29.86,SSW,202,1.0,2.0,97,0.00,,,0.02,meteohub,2013-04-01 03:32:00,
2013-03-31 23:42:00,46.9,46.2,29.87,SSW,202,0.0,2.0,97,0.00,,,0.02,meteohub,2013-04-01 03:42:00,
2013-03-31 23:52:00,46.0,45.3,29.87,SSW,202,2.0,2.0,97,0.00,,,0.02,meteohub,2013-04-01 03:52:00,